createdAt,value
2023-05-24T00:00:34.154Z,95.79
2023-05-24T00:03:02.529Z,96.01
2023-05-24T00:05:32.496Z,95.81
2023-05-24T00:08:00.901Z,95.05
2023-05-24T00:10:29.290Z,95.80
2023-05-24T00:12:57.564Z,95.57
2023-05-24T00:15:25.720Z,95.64
2023-05-24T00:17:53.989Z,95.77
2023-05-24T00:20:22.482Z,96.26
2023-05-24T00:22:50.674Z,96.05
2023-05-24T00:25:21.420Z,96.62
2023-05-24T00:27:49.534Z,96.47
2023-05-24T00:30:17.639Z,96.42
2023-05-24T00:32:45.865Z,96.75
2023-05-24T00:35:14.026Z,97.04
2023-05-24T00:37:47.125Z,97.37
2023-05-24T00:40:18.496Z,97.39
2023-05-24T00:42:46.604Z,97.09
2023-05-24T00:45:14.767Z,97.30
2023-05-24T00:47:42.884Z,97.87
2023-05-24T00:50:13.344Z,97.96
2023-05-24T00:52:44.529Z,97.84
2023-05-24T00:55:13.378Z,97.64
2023-05-24T00:57:41.467Z,97.45
2023-05-24T01:00:10.262Z,98.01
2023-05-24T01:02:39.324Z,98.93
2023-05-24T01:05:08.338Z,98.81
2023-05-24T01:07:43.320Z,99.02
2023-05-24T01:10:37.038Z,100.00
2023-05-24T01:13:29.002Z,98.67
2023-05-24T01:16:06.756Z,99.78
2023-05-24T01:18:42.413Z,99.50
2023-05-24T01:21:13.433Z,100.00
2023-05-24T01:24:24.069Z,100.00
2023-05-24T01:27:07.098Z,100.00
2023-05-24T01:29:35.908Z,100.00
2023-05-24T01:32:04.465Z,100.00
2023-05-24T01:34:32.612Z,100.00
2023-05-24T01:37:00.769Z,100.00
2023-05-24T01:39:29.832Z,100.00
2023-05-24T01:42:07.295Z,100.00
2023-05-24T01:44:38.365Z,100.00
2023-05-24T01:47:18.579Z,100.00
2023-05-24T01:49:51.462Z,100.00
2023-05-24T01:52:21.515Z,100.00
2023-05-24T01:54:51.838Z,100.00
2023-05-24T01:57:20.875Z,100.00
2023-05-24T01:59:49.091Z,100.00
2023-05-24T02:02:17.254Z,100.00
2023-05-24T02:04:45.480Z,100.00
2023-05-24T02:07:13.752Z,100.00
2023-05-24T02:09:42.031Z,100.00
2023-05-24T02:12:10.806Z,100.00
2023-05-24T02:14:39.436Z,100.00
2023-05-24T02:17:08.089Z,100.00
2023-05-24T02:19:38.317Z,100.00
2023-05-24T02:22:06.655Z,100.00
2023-05-24T02:24:34.989Z,99.77
2023-05-24T02:27:03.931Z,100.00
2023-05-24T02:29:32.031Z,99.85
2023-05-24T02:32:00.274Z,100.00
2023-05-24T02:34:28.841Z,100.00
2023-05-24T02:36:57.374Z,100.00
2023-05-24T02:39:25.579Z,99.46
2023-05-24T02:41:53.972Z,100.00
2023-05-24T02:44:22.133Z,98.93
2023-05-24T02:46:50.340Z,98.68
2023-05-24T02:49:18.387Z,97.89
2023-05-24T02:51:46.476Z,97.35
2023-05-24T02:54:14.583Z,98.48
2023-05-24T02:56:42.680Z,97.42
2023-05-24T02:59:10.702Z,98.11
2023-05-24T03:01:38.786Z,98.49
2023-05-24T03:04:07.027Z,95.97
2023-05-24T03:06:35.151Z,96.55
2023-05-24T03:09:03.193Z,95.45
2023-05-24T03:11:31.476Z,95.06
2023-05-24T03:13:59.764Z,96.12
2023-05-24T03:16:27.897Z,92.16
2023-05-24T03:18:56.825Z,94.11
2023-05-24T03:21:25.165Z,93.72
2023-05-24T03:23:53.442Z,92.41
2023-05-24T03:26:22.021Z,93.21
2023-05-24T03:28:51.950Z,92.55
2023-05-24T03:31:22.249Z,92.95
2023-05-24T03:33:50.550Z,93.19
2023-05-24T03:36:18.717Z,93.30
2023-05-24T03:38:46.951Z,91.27
2023-05-24T03:41:15.160Z,91.80
2023-05-24T03:43:57.190Z,92.44
2023-05-24T03:46:25.458Z,90.68
2023-05-24T03:48:53.583Z,91.51
2023-05-24T03:51:22.057Z,91.91
2023-05-24T03:53:50.297Z,92.01
2023-05-24T03:56:18.635Z,90.99
2023-05-24T03:58:46.858Z,91.11
2023-05-24T04:01:29.315Z,91.92
2023-05-24T04:04:03.147Z,91.86
2023-05-24T04:06:31.598Z,92.70
2023-05-24T04:09:00.638Z,92.20
2023-05-24T04:11:30.008Z,92.82
2023-05-24T04:13:59.112Z,93.74
2023-05-24T04:16:27.915Z,92.57
2023-05-24T04:18:59.334Z,92.61
2023-05-24T04:21:27.559Z,93.48
2023-05-24T04:23:57.249Z,93.29
2023-05-24T04:26:25.513Z,94.00
2023-05-24T04:28:53.933Z,95.87
2023-05-24T04:31:22.730Z,98.82
2023-05-24T04:33:51.763Z,100.00
2023-05-24T04:36:19.815Z,100.00
2023-05-24T04:38:47.896Z,100.00
2023-05-24T04:41:16.083Z,100.00
2023-05-24T04:43:44.230Z,100.00
2023-05-24T04:52:55.264Z,100.00
2023-05-24T04:55:23.438Z,100.00
2023-05-24T04:57:51.711Z,100.00
2023-05-24T05:00:20.309Z,100.00
2023-05-24T05:02:49.186Z,100.00
2023-05-24T05:05:17.744Z,100.00
2023-05-24T05:07:45.806Z,100.00
2023-05-24T05:10:13.958Z,100.00
2023-05-24T05:12:42.113Z,100.00
2023-05-24T05:15:10.808Z,100.00
2023-05-24T05:17:39.080Z,100.00
2023-05-24T05:20:08.388Z,100.00
2023-05-24T05:22:36.672Z,100.00
2023-05-24T05:25:05.271Z,100.00
2023-05-24T05:27:33.535Z,100.00
2023-05-24T05:30:01.952Z,100.00
2023-05-24T05:32:30.281Z,100.00
2023-05-24T05:34:58.452Z,100.00
2023-05-24T05:37:26.694Z,100.00
2023-05-24T05:39:54.869Z,100.00
2023-05-24T05:42:23.047Z,100.00
2023-05-24T05:44:51.200Z,100.00
2023-05-24T05:47:19.417Z,100.00
2023-05-24T05:49:47.660Z,100.00
2023-05-24T05:52:15.881Z,100.00
2023-05-24T05:54:56.690Z,100.00
2023-05-24T05:57:25.692Z,100.00
2023-05-24T05:59:53.811Z,100.00
2023-05-24T06:02:24.562Z,100.00
2023-05-24T06:04:52.990Z,100.00
2023-05-24T06:07:21.423Z,100.00
2023-05-24T06:09:49.760Z,100.00
2023-05-24T06:12:17.996Z,100.00
2023-05-24T06:14:46.911Z,100.00
2023-05-24T06:17:15.074Z,100.00
2023-05-24T06:19:43.121Z,100.00
2023-05-24T06:22:11.613Z,100.00
2023-05-24T06:24:41.020Z,100.00
2023-05-24T06:27:09.143Z,100.00
2023-05-24T06:29:37.465Z,100.00
2023-05-24T06:32:05.947Z,100.00
2023-05-24T06:34:34.330Z,100.00
2023-05-24T06:37:04.005Z,100.00
2023-05-24T06:39:32.140Z,100.00
2023-05-24T06:42:00.291Z,100.00
2023-05-24T06:44:35.391Z,100.00
2023-05-24T06:47:03.606Z,100.00
2023-05-24T06:49:31.789Z,100.00
2023-05-24T06:51:59.878Z,100.00
2023-05-24T06:54:28.094Z,100.00
2023-05-24T06:56:57.227Z,100.00
2023-05-24T06:59:25.450Z,100.00
2023-05-24T07:02:00.615Z,100.00
2023-05-24T07:04:31.096Z,100.00
2023-05-24T07:06:59.667Z,100.00
2023-05-24T07:09:28.057Z,100.00
2023-05-24T07:11:56.169Z,100.00
2023-05-24T07:14:25.373Z,100.00
2023-05-24T07:16:53.598Z,100.00
2023-05-24T07:19:23.337Z,100.00
2023-05-24T07:21:52.027Z,100.00
2023-05-24T07:24:20.117Z,100.00
2023-05-24T07:26:48.774Z,100.00
2023-05-24T07:29:16.924Z,100.00
2023-05-24T07:31:45.461Z,100.00
2023-05-24T07:34:13.538Z,100.00
2023-05-24T07:36:42.315Z,100.00
2023-05-24T07:39:17.127Z,100.00
2023-05-24T07:41:45.404Z,100.00
2023-05-24T07:44:14.521Z,100.00
2023-05-24T07:46:42.816Z,100.00
2023-05-24T07:49:11.060Z,100.00
2023-05-24T07:51:39.594Z,100.00
2023-05-24T07:54:07.772Z,100.00
2023-05-24T07:56:35.925Z,100.00
2023-05-24T07:59:06.852Z,100.00
2023-05-24T08:01:38.227Z,100.00
2023-05-24T08:04:06.475Z,100.00
2023-05-24T08:06:34.707Z,100.00
2023-05-24T08:09:06.717Z,100.00
2023-05-24T08:11:34.778Z,100.00
2023-05-24T08:14:02.842Z,100.00
2023-05-24T08:16:31.101Z,100.00
2023-05-24T08:18:59.359Z,100.00
2023-05-24T08:21:27.584Z,100.00
2023-05-24T08:26:22.531Z,100.00
2023-05-24T08:28:50.693Z,100.00
2023-05-24T08:31:19.430Z,100.00
2023-05-24T08:33:51.852Z,100.00
2023-05-24T08:36:20.172Z,100.00
2023-05-24T08:38:48.427Z,100.00
2023-05-24T08:41:16.573Z,100.00
2023-05-24T08:43:45.453Z,100.00
2023-05-24T08:46:13.916Z,100.00
2023-05-24T08:48:49.059Z,100.00
2023-05-24T08:51:17.623Z,100.00
2023-05-24T08:53:49.736Z,100.00
2023-05-24T08:56:20.942Z,100.00
2023-05-24T08:58:49.163Z,100.00
2023-05-24T09:01:18.215Z,100.00
2023-05-24T09:03:48.198Z,100.00
2023-05-24T09:06:18.324Z,100.00
2023-05-24T09:08:46.993Z,100.00
2023-05-24T09:11:15.282Z,100.00
2023-05-24T09:13:44.090Z,100.00
2023-05-24T09:16:12.257Z,100.00
2023-05-24T09:18:42.617Z,100.00
2023-05-24T09:21:12.408Z,100.00
2023-05-24T09:23:41.054Z,100.00
2023-05-24T09:26:10.980Z,100.00
2023-05-24T09:28:39.809Z,100.00
2023-05-24T09:31:08.402Z,100.00
2023-05-24T09:33:36.797Z,100.00
2023-05-24T09:36:06.000Z,100.00
2023-05-24T09:38:34.687Z,100.00
2023-05-24T09:41:04.365Z,100.00
2023-05-24T09:43:33.235Z,100.00
2023-05-24T09:46:03.327Z,100.00
2023-05-24T09:48:31.905Z,100.00
2023-05-24T09:51:07.021Z,100.00
2023-05-24T09:53:36.318Z,100.00
2023-05-24T09:56:09.846Z,99.07
2023-05-24T09:58:37.869Z,100.00
2023-05-24T10:01:09.801Z,100.00
2023-05-24T10:03:38.794Z,100.00
2023-05-24T10:06:09.032Z,100.00
2023-05-24T10:08:37.989Z,100.00
2023-05-24T10:11:06.568Z,100.00
2023-05-24T10:13:37.143Z,100.00
2023-05-24T10:16:05.495Z,100.00
2023-05-24T10:18:33.569Z,100.00
2023-05-24T10:21:03.167Z,100.00
2023-05-24T10:23:32.482Z,100.00
2023-05-24T10:26:08.517Z,100.00
2023-05-24T10:28:54.565Z,100.00
2023-05-24T10:31:28.493Z,100.00
2023-05-24T10:34:06.510Z,100.00
2023-05-24T10:36:36.397Z,100.00
2023-05-24T10:39:05.167Z,100.00
2023-05-24T10:41:40.954Z,100.00
2023-05-24T10:44:21.687Z,100.00
2023-05-24T10:47:15.123Z,100.00
2023-05-24T10:49:53.767Z,100.00
2023-05-24T10:52:21.951Z,98.99
2023-05-24T10:55:06.044Z,100.00
2023-05-24T10:57:34.643Z,100.00
2023-05-24T11:00:33.836Z,99.52
2023-05-24T11:03:05.532Z,100.00
2023-05-24T11:05:38.068Z,98.00
2023-05-24T11:08:08.231Z,97.28
2023-05-24T11:10:36.297Z,96.66
2023-05-24T11:13:04.793Z,96.46
2023-05-24T11:15:33.030Z,95.38
2023-05-24T11:18:21.827Z,95.19
2023-05-24T11:20:50.021Z,95.48
2023-05-24T11:23:18.325Z,94.91
2023-05-24T11:28:17.969Z,94.77
2023-05-24T11:30:47.287Z,96.25
2023-05-24T11:33:21.862Z,90.19
2023-05-24T11:35:51.840Z,90.19
2023-05-24T11:38:21.236Z,89.48
2023-05-24T11:40:51.315Z,91.73
2023-05-24T11:43:20.864Z,91.00
2023-05-24T11:45:52.610Z,89.32
2023-05-24T11:48:21.374Z,89.68
2023-05-24T11:50:53.016Z,89.50
2023-05-24T11:53:24.614Z,89.21
2023-05-24T11:55:54.472Z,89.08
2023-05-24T11:58:27.686Z,87.68
2023-05-24T12:00:55.974Z,85.47
2023-05-24T12:03:24.592Z,85.42
2023-05-24T12:05:52.934Z,85.60
2023-05-24T12:08:21.835Z,84.29
2023-05-24T12:10:50.700Z,84.49
2023-05-24T12:13:24.615Z,83.34
2023-05-24T12:15:56.290Z,81.86
2023-05-24T12:18:25.595Z,84.25
2023-05-24T12:20:54.178Z,82.68
2023-05-24T12:23:24.792Z,82.44
2023-05-24T12:25:52.862Z,83.82
2023-05-24T12:28:26.162Z,85.79
2023-05-24T12:30:54.792Z,86.31
2023-05-24T12:33:22.993Z,85.74
2023-05-24T12:35:51.489Z,84.44
2023-05-24T12:38:26.507Z,83.98
2023-05-24T12:41:11.229Z,82.27
2023-05-24T12:43:42.074Z,80.75
2023-05-24T12:46:10.204Z,81.64
2023-05-24T12:48:38.565Z,80.47
2023-05-24T12:51:06.755Z,80.74
2023-05-24T12:53:35.522Z,82.78
2023-05-24T12:56:03.609Z,83.45
2023-05-24T12:58:31.776Z,82.48
2023-05-24T13:01:00.268Z,81.65
2023-05-24T13:03:29.316Z,81.28
2023-05-24T13:05:57.892Z,79.28
2023-05-24T13:08:26.052Z,80.90
2023-05-24T13:10:55.332Z,78.62
2023-05-24T13:13:23.569Z,76.51
2023-05-24T13:15:52.163Z,78.86
2023-05-24T13:18:20.308Z,77.37
2023-05-24T13:20:48.520Z,77.51
2023-05-24T13:23:16.685Z,80.35
2023-05-24T13:25:45.405Z,79.11
2023-05-24T13:28:13.592Z,80.52
2023-05-24T13:30:41.950Z,80.58
2023-05-24T13:33:10.260Z,80.40
2023-05-24T13:35:38.603Z,80.18
2023-05-24T13:38:07.134Z,79.84
2023-05-24T13:40:35.405Z,78.72
2023-05-24T13:43:03.806Z,79.13
2023-05-24T13:45:31.950Z,79.81
2023-05-24T13:48:06.759Z,80.10
2023-05-24T13:50:35.665Z,81.36
2023-05-24T13:53:05.013Z,81.45
2023-05-24T13:55:37.466Z,82.07
2023-05-24T13:58:06.649Z,83.70
2023-05-24T14:00:35.662Z,80.55
2023-05-24T14:03:04.608Z,81.31
2023-05-24T14:05:33.082Z,81.93
2023-05-24T14:08:07.635Z,81.76
2023-05-24T14:10:38.631Z,81.95
2023-05-24T14:15:38.266Z,79.37
2023-05-24T14:18:09.201Z,79.52
2023-05-24T14:20:41.571Z,79.33
2023-05-24T14:23:10.199Z,79.65
2023-05-24T14:25:38.393Z,81.15
2023-05-24T14:28:06.447Z,82.71
2023-05-24T14:30:34.753Z,81.11
2023-05-24T14:33:03.844Z,80.62
2023-05-24T14:35:32.060Z,80.92
2023-05-24T14:38:00.237Z,80.78
2023-05-24T14:40:28.470Z,78.32
2023-05-24T14:42:57.122Z,78.52
2023-05-24T14:45:25.785Z,79.30
2023-05-24T14:47:54.181Z,79.89
2023-05-24T14:50:22.827Z,80.74
2023-05-24T14:52:52.511Z,81.73
2023-05-24T14:55:21.846Z,81.89
2023-05-24T14:57:50.550Z,81.70
2023-05-24T15:00:22.629Z,82.06
2023-05-24T15:02:51.965Z,80.68
2023-05-24T15:05:20.622Z,80.66
2023-05-24T15:07:48.804Z,80.42
2023-05-24T15:10:16.970Z,81.10
2023-05-24T15:12:45.764Z,83.05
2023-05-24T15:15:14.034Z,83.21
2023-05-24T15:17:42.204Z,83.89
2023-05-24T15:20:10.668Z,83.30
2023-05-24T15:22:39.058Z,82.25
2023-05-24T15:25:07.835Z,82.61
2023-05-24T15:27:35.998Z,81.04
2023-05-24T15:30:04.222Z,80.77
2023-05-24T15:32:32.257Z,79.92
2023-05-24T15:35:01.792Z,80.67
2023-05-24T15:37:29.880Z,80.64
2023-05-24T15:39:58.068Z,81.53
2023-05-24T15:42:26.615Z,81.13
2023-05-24T15:44:54.928Z,79.89
2023-05-24T15:47:23.479Z,80.65
2023-05-24T15:49:51.624Z,80.14
2023-05-24T15:52:19.699Z,79.55
2023-05-24T15:54:47.733Z,80.05
2023-05-24T15:57:15.783Z,79.04
2023-05-24T15:59:43.836Z,78.50
2023-05-24T16:02:12.639Z,79.52
2023-05-24T16:04:40.891Z,78.93
2023-05-24T16:07:09.003Z,78.90
2023-05-24T16:09:37.169Z,78.85
2023-05-24T16:12:07.249Z,78.19
2023-05-24T16:14:35.500Z,78.24
2023-05-24T16:17:06.639Z,78.97
2023-05-24T16:19:34.919Z,78.88
2023-05-24T16:22:03.772Z,78.22
2023-05-24T16:24:31.839Z,78.43
2023-05-24T16:26:59.933Z,78.87
2023-05-24T16:29:28.110Z,79.26
2023-05-24T16:31:56.223Z,79.48
2023-05-24T16:34:27.111Z,79.73
2023-05-24T16:36:55.267Z,79.89
2023-05-24T16:39:23.709Z,79.69
2023-05-24T16:41:53.266Z,78.88
2023-05-24T16:44:21.392Z,79.76
2023-05-24T16:46:49.610Z,79.70
2023-05-24T16:49:18.854Z,80.63
2023-05-24T16:51:47.040Z,79.90
2023-05-24T16:54:15.094Z,79.40
2023-05-24T16:56:43.791Z,78.98
2023-05-24T16:59:11.960Z,79.92
2023-05-24T17:01:40.282Z,80.49
2023-05-24T17:04:08.765Z,81.98
2023-05-24T17:06:37.835Z,81.24
2023-05-24T17:09:06.081Z,79.61
2023-05-24T17:11:34.132Z,80.02
2023-05-24T17:14:02.419Z,78.91
2023-05-24T17:16:31.199Z,79.59
2023-05-24T17:18:59.571Z,78.88
2023-05-24T17:21:31.233Z,79.48
2023-05-24T17:23:59.398Z,79.60
2023-05-24T17:26:28.572Z,80.37
2023-05-24T17:28:56.731Z,79.55
2023-05-24T17:31:24.988Z,80.99
2023-05-24T17:33:53.190Z,80.89
2023-05-24T17:36:21.290Z,81.21
2023-05-24T17:38:49.525Z,80.24
2023-05-24T17:41:17.694Z,80.68
2023-05-24T17:43:45.973Z,79.39
2023-05-24T17:46:14.951Z,82.09
2023-05-24T17:48:44.365Z,83.38
2023-05-24T17:51:12.664Z,83.27
2023-05-24T17:53:44.420Z,82.88
2023-05-24T17:56:12.764Z,82.31
2023-05-24T17:58:41.040Z,82.64
2023-05-24T18:01:12.927Z,82.53
2023-05-24T18:03:42.227Z,82.25
2023-05-24T18:06:10.690Z,82.02
2023-05-24T18:08:40.064Z,82.15
2023-05-24T18:11:11.541Z,81.58
2023-05-24T18:13:40.638Z,81.84
2023-05-24T18:16:10.035Z,81.87
2023-05-24T18:18:39.080Z,82.67
2023-05-24T18:21:07.570Z,81.82
2023-05-24T18:23:38.744Z,81.45
2023-05-24T18:26:11.375Z,81.08
2023-05-24T18:28:39.933Z,81.92
2023-05-24T18:31:15.077Z,82.81
2023-05-24T18:33:43.614Z,80.96
2023-05-24T18:36:12.458Z,82.98
2023-05-24T18:38:44.093Z,81.50
2023-05-24T18:41:13.408Z,80.52
2023-05-24T18:43:41.630Z,82.22
2023-05-24T18:46:14.898Z,83.00
2023-05-24T18:48:43.621Z,86.44
2023-05-24T18:51:11.848Z,85.49
2023-05-24T18:53:40.171Z,83.41
2023-05-24T18:56:08.593Z,84.65
2023-05-24T18:58:36.838Z,82.50
2023-05-24T19:01:05.260Z,82.64
2023-05-24T19:03:33.547Z,83.86
2023-05-24T19:06:01.612Z,87.62
2023-05-24T19:08:29.804Z,87.68
2023-05-24T19:10:58.092Z,86.08
2023-05-24T19:13:27.232Z,88.41
2023-05-24T19:15:55.522Z,91.83
2023-05-24T19:18:24.360Z,91.21
2023-05-24T19:20:52.839Z,92.70
2023-05-24T19:23:20.971Z,95.27
2023-05-24T19:25:51.646Z,93.03
2023-05-24T19:28:19.781Z,97.32
2023-05-24T19:30:47.948Z,97.72
2023-05-24T19:33:16.076Z,99.68
2023-05-24T19:35:44.512Z,100.00
2023-05-24T19:38:13.494Z,100.00
2023-05-24T19:40:41.613Z,100.00
2023-05-24T19:43:09.759Z,99.88
2023-05-24T19:45:38.234Z,100.00
2023-05-24T19:48:06.744Z,100.00
2023-05-24T19:50:34.917Z,100.00
2023-05-24T19:53:03.022Z,100.00
2023-05-24T19:55:31.120Z,100.00
2023-05-24T19:57:59.360Z,100.00
2023-05-24T20:00:27.473Z,100.00
2023-05-24T20:02:55.746Z,100.00
2023-05-24T20:05:23.840Z,100.00
2023-05-24T20:07:52.433Z,100.00
2023-05-24T20:10:20.606Z,100.00
2023-05-24T20:12:48.828Z,100.00
2023-05-24T20:15:17.627Z,100.00
2023-05-24T20:17:48.652Z,100.00
2023-05-24T20:20:19.285Z,100.00
2023-05-24T20:22:47.473Z,100.00
2023-05-24T20:25:15.482Z,100.00
2023-05-24T20:27:43.733Z,95.29
2023-05-24T20:30:12.557Z,95.51
2023-05-24T20:32:40.818Z,93.55
2023-05-24T20:35:09.883Z,93.57
2023-05-24T20:37:38.343Z,95.73
2023-05-24T20:40:07.078Z,93.40
2023-05-24T20:42:35.534Z,95.00
2023-05-24T20:45:04.797Z,95.19
2023-05-24T20:47:32.988Z,97.15
2023-05-24T20:50:01.350Z,97.86
2023-05-24T20:52:29.510Z,96.85
2023-05-24T20:54:58.032Z,97.31
2023-05-24T20:57:26.102Z,98.89
2023-05-24T20:59:54.296Z,99.73
2023-05-24T21:02:22.496Z,97.65
2023-05-24T21:04:50.605Z,96.69
2023-05-24T21:07:18.838Z,94.09
2023-05-24T21:09:47.116Z,96.18
2023-05-24T21:12:15.334Z,90.39
2023-05-24T21:14:43.439Z,90.69
2023-05-24T21:17:12.153Z,90.56
2023-05-24T21:19:41.029Z,92.65
2023-05-24T21:22:09.138Z,88.01
2023-05-24T21:24:37.422Z,88.32
2023-05-24T21:27:05.788Z,86.55
2023-05-24T21:29:33.907Z,87.00
2023-05-24T21:32:02.366Z,87.75
2023-05-24T21:34:31.367Z,87.67
2023-05-24T21:36:59.519Z,85.31
2023-05-24T21:39:27.625Z,87.77
2023-05-24T21:41:55.686Z,86.44
2023-05-24T21:44:23.884Z,84.72
2023-05-24T21:46:52.302Z,88.44
2023-05-24T21:49:21.476Z,89.72
2023-05-24T21:51:49.590Z,90.08
2023-05-24T21:54:17.697Z,88.49
2023-05-24T21:56:45.872Z,89.23
2023-05-24T21:59:14.068Z,89.92
2023-05-24T22:01:42.284Z,85.71
2023-05-24T22:04:11.062Z,85.06
2023-05-24T22:06:42.745Z,84.51
2023-05-24T22:09:11.064Z,83.26
2023-05-24T22:14:24.357Z,84.08
2023-05-24T22:16:52.578Z,82.49
2023-05-24T22:19:32.070Z,83.36
2023-05-24T22:22:07.515Z,83.55
2023-05-24T22:24:35.518Z,83.95
2023-05-24T22:27:03.949Z,82.63
2023-05-24T22:29:32.073Z,85.06
2023-05-24T22:32:00.410Z,81.93
2023-05-24T22:34:31.645Z,82.90
2023-05-24T22:36:59.862Z,81.58
2023-05-24T22:39:28.256Z,78.20
2023-05-24T22:41:56.339Z,78.85
2023-05-24T22:44:24.379Z,77.30
2023-05-24T22:46:54.861Z,77.97
2023-05-24T22:49:23.256Z,74.69
2023-05-24T22:51:52.025Z,77.84
2023-05-24T22:54:20.162Z,75.81
2023-05-24T22:56:48.326Z,74.43
2023-05-24T22:59:16.501Z,74.47
2023-05-24T23:01:46.156Z,73.67
2023-05-24T23:04:20.997Z,74.87
2023-05-24T23:06:53.736Z,71.84
2023-05-24T23:09:30.296Z,73.33
2023-05-24T23:11:59.661Z,73.34
2023-05-24T23:14:27.836Z,75.74
2023-05-24T23:16:55.948Z,73.73
2023-05-24T23:19:24.052Z,73.07
2023-05-24T23:21:53.763Z,72.89
2023-05-24T23:24:22.032Z,73.86
2023-05-24T23:26:50.168Z,72.80
2023-05-24T23:29:18.278Z,68.96
2023-05-24T23:31:46.616Z,72.06
2023-05-24T23:34:14.818Z,71.79
2023-05-24T23:36:42.934Z,71.88
2023-05-24T23:39:13.912Z,70.87
2023-05-24T23:41:42.086Z,70.17
2023-05-24T23:44:10.156Z,71.08
2023-05-24T23:46:38.331Z,71.99
2023-05-24T23:49:06.426Z,71.67
2023-05-24T23:51:34.794Z,70.60
2023-05-24T23:54:02.913Z,71.01
2023-05-24T23:56:31.030Z,69.80
2023-05-24T23:58:59.145Z,71.28
